sensor_id;sensor_type;location;lat;lon;timestamp;P1;durP1;ratioP1;P2;durP2;ratioP2
3259;SDS011;22469;48.150;14.004;2023-03-20T00:02:18;22.13;;;19.83;;
3259;SDS011;22469;48.150;14.004;2023-03-20T00:04:49;22.13;;;19.07;;
3259;SDS011;22469;48.150;14.004;2023-03-20T00:07:17;21.57;;;19.60;;
3259;SDS011;22469;48.150;14.004;2023-03-20T00:09:44;21.00;;;19.00;;
3259;SDS011;22469;48.150;14.004;2023-03-20T00:12:16;21.90;;;19.60;;
3259;SDS011;22469;48.150;14.004;2023-03-20T00:14:50;28.03;;;21.83;;
3259;SDS011;22469;48.150;14.004;2023-03-20T00:17:18;21.80;;;19.57;;
3259;SDS011;22469;48.150;14.004;2023-03-20T00:19:46;21.33;;;19.10;;
3259;SDS011;22469;48.150;14.004;2023-03-20T00:22:14;22.73;;;20.00;;
3259;SDS011;22469;48.150;14.004;2023-03-20T00:24:41;22.07;;;19.77;;
3259;SDS011;22469;48.150;14.004;2023-03-20T00:27:09;24.53;;;22.00;;
3259;SDS011;22469;48.150;14.004;2023-03-20T00:29:41;19.33;;;17.57;;
3259;SDS011;22469;48.150;14.004;2023-03-20T00:32:10;21.20;;;18.10;;
3259;SDS011;22469;48.150;14.004;2023-03-20T00:34:38;23.23;;;20.73;;
3259;SDS011;22469;48.150;14.004;2023-03-20T00:37:07;21.10;;;19.00;;
3259;SDS011;22469;48.150;14.004;2023-03-20T00:39:37;22.10;;;19.10;;
3259;SDS011;22469;48.150;14.004;2023-03-20T00:42:04;28.27;;;19.47;;
3259;SDS011;22469;48.150;14.004;2023-03-20T00:44:42;21.07;;;18.87;;
3259;SDS011;22469;48.150;14.004;2023-03-20T00:47:22;24.33;;;21.23;;
3259;SDS011;22469;48.150;14.004;2023-03-20T00:49:50;20.40;;;18.33;;
3259;SDS011;22469;48.150;14.004;2023-03-20T00:52:21;20.53;;;18.60;;
3259;SDS011;22469;48.150;14.004;2023-03-20T00:54:50;21.37;;;19.03;;
3259;SDS011;22469;48.150;14.004;2023-03-20T00:57:24;22.57;;;20.17;;
3259;SDS011;22469;48.150;14.004;2023-03-20T00:59:57;21.87;;;18.73;;
3259;SDS011;22469;48.150;14.004;2023-03-20T01:02:30;20.90;;;18.90;;
3259;SDS011;22469;48.150;14.004;2023-03-20T01:04:58;22.03;;;19.67;;
3259;SDS011;22469;48.150;14.004;2023-03-20T01:07:26;21.47;;;19.17;;
3259;SDS011;22469;48.150;14.004;2023-03-20T01:09:53;22.17;;;19.87;;
3259;SDS011;22469;48.150;14.004;2023-03-20T01:12:20;21.87;;;19.67;;
3259;SDS011;22469;48.150;14.004;2023-03-20T01:14:52;21.63;;;19.60;;
3259;SDS011;22469;48.150;14.004;2023-03-20T01:17:23;24.53;;;18.67;;
3259;SDS011;22469;48.150;14.004;2023-03-20T01:19:53;20.33;;;18.13;;
3259;SDS011;22469;48.150;14.004;2023-03-20T01:22:20;21.40;;;19.23;;
3259;SDS011;22469;48.150;14.004;2023-03-20T01:24:47;23.70;;;20.47;;
3259;SDS011;22469;48.150;14.004;2023-03-20T01:27:15;19.67;;;17.87;;
3259;SDS011;22469;48.150;14.004;2023-03-20T01:29:45;21.63;;;19.63;;
3259;SDS011;22469;48.150;14.004;2023-03-20T01:32:14;21.43;;;19.43;;
3259;SDS011;22469;48.150;14.004;2023-03-20T01:34:43;21.63;;;19.30;;
3259;SDS011;22469;48.150;14.004;2023-03-20T01:37:12;19.40;;;17.60;;
3259;SDS011;22469;48.150;14.004;2023-03-20T01:39:52;21.60;;;19.27;;
3259;SDS011;22469;48.150;14.004;2023-03-20T01:42:19;19.97;;;17.97;;
3259;SDS011;22469;48.150;14.004;2023-03-20T01:44:46;20.03;;;18.03;;
3259;SDS011;22469;48.150;14.004;2023-03-20T01:47:15;20.43;;;18.33;;
3259;SDS011;22469;48.150;14.004;2023-03-20T01:53:15;20.60;;;18.57;;
3259;SDS011;22469;48.150;14.004;2023-03-20T01:55:47;19.23;;;17.57;;
3259;SDS011;22469;48.150;14.004;2023-03-20T01:58:21;22.10;;;19.90;;
3259;SDS011;22469;48.150;14.004;2023-03-20T02:00:56;23.20;;;19.40;;
3259;SDS011;22469;48.150;14.004;2023-03-20T02:03:25;18.20;;;16.60;;
3259;SDS011;22469;48.150;14.004;2023-03-20T02:05:53;20.37;;;18.63;;
3259;SDS011;22469;48.150;14.004;2023-03-20T02:08:29;20.57;;;18.47;;
3259;SDS011;22469;48.150;14.004;2023-03-20T02:10:58;19.77;;;18.07;;
3259;SDS011;22469;48.150;14.004;2023-03-20T02:13:26;20.73;;;18.63;;
3259;SDS011;22469;48.150;14.004;2023-03-20T02:18:39;19.90;;;17.70;;
3259;SDS011;22469;48.150;14.004;2023-03-20T02:27:43;20.00;;;18.10;;
3259;SDS011;22469;48.150;14.004;2023-03-20T02:36:47;19.70;;;17.80;;
3259;SDS011;22469;48.150;14.004;2023-03-20T02:45:28;20.60;;;18.70;;
3259;SDS011;22469;48.150;14.004;2023-03-20T02:51:19;18.97;;;17.17;;
3259;SDS011;22469;48.150;14.004;2023-03-20T02:54:20;19.90;;;18.00;;
3259;SDS011;22469;48.150;14.004;2023-03-20T02:57:01;18.57;;;16.80;;
3259;SDS011;22469;48.150;14.004;2023-03-20T02:59:40;21.30;;;16.47;;
3259;SDS011;22469;48.150;14.004;2023-03-20T03:02:17;19.03;;;17.17;;
3259;SDS011;22469;48.150;14.004;2023-03-20T03:04:59;17.83;;;16.00;;
3259;SDS011;22469;48.150;14.004;2023-03-20T03:07:33;20.37;;;18.53;;
3259;SDS011;22469;48.150;14.004;2023-03-20T03:10:36;19.37;;;17.33;;
3259;SDS011;22469;48.150;14.004;2023-03-20T03:13:03;18.97;;;17.17;;
3259;SDS011;22469;48.150;14.004;2023-03-20T03:15:38;20.50;;;17.70;;
3259;SDS011;22469;48.150;14.004;2023-03-20T03:18:14;19.07;;;17.03;;
3259;SDS011;22469;48.150;14.004;2023-03-20T03:20:47;19.63;;;17.70;;
3259;SDS011;22469;48.150;14.004;2023-03-20T03:26:09;18.87;;;16.97;;
3259;SDS011;22469;48.150;14.004;2023-03-20T03:28:48;18.80;;;17.00;;
3259;SDS011;22469;48.150;14.004;2023-03-20T03:31:22;20.10;;;18.43;;
3259;SDS011;22469;48.150;14.004;2023-03-20T03:33:51;20.50;;;18.50;;
3259;SDS011;22469;48.150;14.004;2023-03-20T03:42:29;18.10;;;16.30;;
3259;SDS011;22469;48.150;14.004;2023-03-20T03:45:11;20.03;;;17.93;;
3259;SDS011;22469;48.150;14.004;2023-03-20T03:47:54;18.63;;;16.27;;
3259;SDS011;22469;48.150;14.004;2023-03-20T03:50:32;17.47;;;15.87;;
3259;SDS011;22469;48.150;14.004;2023-03-20T03:53:18;18.80;;;16.80;;
3259;SDS011;22469;48.150;14.004;2023-03-20T03:55:52;19.30;;;17.50;;
3259;SDS011;22469;48.150;14.004;2023-03-20T03:58:36;20.63;;;17.87;;
3259;SDS011;22469;48.150;14.004;2023-03-20T04:01:08;18.27;;;16.57;;
3259;SDS011;22469;48.150;14.004;2023-03-20T04:03:39;19.77;;;16.33;;
3259;SDS011;22469;48.150;14.004;2023-03-20T04:06:15;18.57;;;16.57;;
3259;SDS011;22469;48.150;14.004;2023-03-20T04:08:43;18.47;;;16.77;;
3259;SDS011;22469;48.150;14.004;2023-03-20T04:11:14;18.63;;;16.93;;
3259;SDS011;22469;48.150;14.004;2023-03-20T04:13:46;18.47;;;16.73;;
3259;SDS011;22469;48.150;14.004;2023-03-20T04:16:15;19.20;;;17.17;;
3259;SDS011;22469;48.150;14.004;2023-03-20T04:18:45;18.33;;;16.40;;
3259;SDS011;22469;48.150;14.004;2023-03-20T04:21:13;19.73;;;17.73;;
3259;SDS011;22469;48.150;14.004;2023-03-20T04:23:41;19.00;;;17.10;;
3259;SDS011;22469;48.150;14.004;2023-03-20T04:26:09;18.53;;;16.83;;
3259;SDS011;22469;48.150;14.004;2023-03-20T04:28:36;20.20;;;18.20;;
3259;SDS011;22469;48.150;14.004;2023-03-20T04:31:03;18.93;;;17.13;;
3259;SDS011;22469;48.150;14.004;2023-03-20T04:33:31;19.17;;;17.37;;
3259;SDS011;22469;48.150;14.004;2023-03-20T04:35:58;20.53;;;17.30;;
3259;SDS011;22469;48.150;14.004;2023-03-20T04:38:26;20.10;;;18.20;;
3259;SDS011;22469;48.150;14.004;2023-03-20T04:40:53;20.70;;;18.33;;
3259;SDS011;22469;48.150;14.004;2023-03-20T04:43:20;20.00;;;18.20;;
3259;SDS011;22469;48.150;14.004;2023-03-20T04:45:47;20.73;;;18.67;;
3259;SDS011;22469;48.150;14.004;2023-03-20T04:48:14;21.83;;;19.63;;
3259;SDS011;22469;48.150;14.004;2023-03-20T04:50:41;20.17;;;18.17;;
3259;SDS011;22469;48.150;14.004;2023-03-20T04:53:11;21.53;;;19.43;;
3259;SDS011;22469;48.150;14.004;2023-03-20T04:55:39;20.65;;;18.45;;
3259;SDS011;22469;48.150;14.004;2023-03-20T04:58:06;21.97;;;19.60;;
3259;SDS011;22469;48.150;14.004;2023-03-20T05:00:33;21.50;;;19.30;;
3259;SDS011;22469;48.150;14.004;2023-03-20T05:03:00;21.47;;;19.30;;
3259;SDS011;22469;48.150;14.004;2023-03-20T05:05:28;20.50;;;18.53;;
3259;SDS011;22469;48.150;14.004;2023-03-20T05:07:55;22.83;;;20.43;;
3259;SDS011;22469;48.150;14.004;2023-03-20T05:10:22;20.20;;;18.33;;
3259;SDS011;22469;48.150;14.004;2023-03-20T05:12:49;21.70;;;19.50;;
3259;SDS011;22469;48.150;14.004;2023-03-20T05:15:16;21.80;;;18.73;;
3259;SDS011;22469;48.150;14.004;2023-03-20T05:17:43;22.87;;;20.33;;
3259;SDS011;22469;48.150;14.004;2023-03-20T05:20:10;27.70;;;19.90;;
3259;SDS011;22469;48.150;14.004;2023-03-20T05:22:37;21.43;;;19.30;;
3259;SDS011;22469;48.150;14.004;2023-03-20T05:25:04;21.03;;;19.03;;
3259;SDS011;22469;48.150;14.004;2023-03-20T05:27:32;20.63;;;18.53;;
3259;SDS011;22469;48.150;14.004;2023-03-20T05:29:59;21.40;;;19.30;;
3259;SDS011;22469;48.150;14.004;2023-03-20T05:32:26;21.57;;;19.40;;
3259;SDS011;22469;48.150;14.004;2023-03-20T05:34:53;23.07;;;20.87;;
3259;SDS011;22469;48.150;14.004;2023-03-20T05:37:21;22.80;;;20.60;;
3259;SDS011;22469;48.150;14.004;2023-03-20T05:39:48;22.00;;;19.97;;
3259;SDS011;22469;48.150;14.004;2023-03-20T05:42:15;23.30;;;21.10;;
3259;SDS011;22469;48.150;14.004;2023-03-20T05:44:42;21.17;;;18.97;;
3259;SDS011;22469;48.150;14.004;2023-03-20T05:47:09;23.27;;;20.87;;
3259;SDS011;22469;48.150;14.004;2023-03-20T05:49:36;22.03;;;19.70;;
3259;SDS011;22469;48.150;14.004;2023-03-20T05:52:03;21.33;;;19.00;;
3259;SDS011;22469;48.150;14.004;2023-03-20T05:54:30;23.53;;;21.23;;
3259;SDS011;22469;48.150;14.004;2023-03-20T05:56:57;21.73;;;19.73;;
3259;SDS011;22469;48.150;14.004;2023-03-20T05:59:24;20.67;;;18.57;;
3259;SDS011;22469;48.150;14.004;2023-03-20T06:01:51;22.87;;;20.27;;
3259;SDS011;22469;48.150;14.004;2023-03-20T06:04:18;23.30;;;20.83;;
3259;SDS011;22469;48.150;14.004;2023-03-20T06:06:45;23.53;;;20.40;;
3259;SDS011;22469;48.150;14.004;2023-03-20T06:09:12;21.63;;;19.43;;
3259;SDS011;22469;48.150;14.004;2023-03-20T06:11:39;24.57;;;20.70;;
3259;SDS011;22469;48.150;14.004;2023-03-20T06:14:06;23.00;;;20.63;;
3259;SDS011;22469;48.150;14.004;2023-03-20T06:16:33;21.67;;;19.73;;
3259;SDS011;22469;48.150;14.004;2023-03-20T06:19:00;23.57;;;21.10;;
3259;SDS011;22469;48.150;14.004;2023-03-20T06:21:27;25.13;;;22.53;;
3259;SDS011;22469;48.150;14.004;2023-03-20T06:23:54;23.13;;;20.53;;
3259;SDS011;22469;48.150;14.004;2023-03-20T06:26:23;23.70;;;21.30;;
3259;SDS011;22469;48.150;14.004;2023-03-20T06:28:51;24.03;;;21.63;;
3259;SDS011;22469;48.150;14.004;2023-03-20T06:31:18;22.60;;;20.40;;
3259;SDS011;22469;48.150;14.004;2023-03-20T06:33:45;22.00;;;19.80;;
3259;SDS011;22469;48.150;14.004;2023-03-20T06:36:12;22.30;;;20.10;;
3259;SDS011;22469;48.150;14.004;2023-03-20T06:38:39;22.97;;;20.67;;
3259;SDS011;22469;48.150;14.004;2023-03-20T06:41:06;22.53;;;20.30;;
3259;SDS011;22469;48.150;14.004;2023-03-20T06:43:33;22.40;;;20.40;;
3259;SDS011;22469;48.150;14.004;2023-03-20T06:46:00;22.40;;;20.30;;
3259;SDS011;22469;48.150;14.004;2023-03-20T06:48:27;21.40;;;19.30;;
3259;SDS011;22469;48.150;14.004;2023-03-20T06:50:54;24.97;;;19.77;;
3259;SDS011;22469;48.150;14.004;2023-03-20T06:53:21;20.80;;;18.70;;
3259;SDS011;22469;48.150;14.004;2023-03-20T06:55:48;19.47;;;16.93;;
3259;SDS011;22469;48.150;14.004;2023-03-20T06:58:17;18.17;;;16.37;;
3259;SDS011;22469;48.150;14.004;2023-03-20T07:00:44;19.80;;;17.70;;
3259;SDS011;22469;48.150;14.004;2023-03-20T07:03:12;19.20;;;17.27;;
3259;SDS011;22469;48.150;14.004;2023-03-20T07:05:39;19.63;;;17.73;;
3259;SDS011;22469;48.150;14.004;2023-03-20T07:08:06;22.83;;;16.80;;
3259;SDS011;22469;48.150;14.004;2023-03-20T07:10:33;18.87;;;17.00;;
3259;SDS011;22469;48.150;14.004;2023-03-20T07:13:01;18.13;;;16.33;;
3259;SDS011;22469;48.150;14.004;2023-03-20T07:15:29;20.80;;;14.90;;
3259;SDS011;22469;48.150;14.004;2023-03-20T07:17:57;18.87;;;16.90;;
3259;SDS011;22469;48.150;14.004;2023-03-20T07:20:25;16.80;;;15.20;;
3259;SDS011;22469;48.150;14.004;2023-03-20T07:22:52;18.83;;;16.93;;
3259;SDS011;22469;48.150;14.004;2023-03-20T07:25:20;18.23;;;16.43;;
3259;SDS011;22469;48.150;14.004;2023-03-20T07:28:04;17.67;;;15.83;;
3259;SDS011;22469;48.150;14.004;2023-03-20T07:30:31;16.97;;;15.27;;
3259;SDS011;22469;48.150;14.004;2023-03-20T07:32:58;16.83;;;14.10;;
3259;SDS011;22469;48.150;14.004;2023-03-20T07:35:26;16.23;;;14.63;;
3259;SDS011;22469;48.150;14.004;2023-03-20T07:37:53;16.47;;;14.87;;
3259;SDS011;22469;48.150;14.004;2023-03-20T07:40:23;16.40;;;14.70;;
3259;SDS011;22469;48.150;14.004;2023-03-20T07:42:50;16.73;;;15.10;;
3259;SDS011;22469;48.150;14.004;2023-03-20T07:45:18;15.40;;;13.90;;
3259;SDS011;22469;48.150;14.004;2023-03-20T07:47:45;15.60;;;14.07;;
3259;SDS011;22469;48.150;14.004;2023-03-20T07:50:13;14.13;;;12.93;;
3259;SDS011;22469;48.150;14.004;2023-03-20T07:52:48;13.10;;;11.83;;
3259;SDS011;22469;48.150;14.004;2023-03-20T07:55:16;12.83;;;11.63;;
3259;SDS011;22469;48.150;14.004;2023-03-20T07:57:44;13.80;;;12.40;;
3259;SDS011;22469;48.150;14.004;2023-03-20T08:00:11;14.70;;;13.30;;
3259;SDS011;22469;48.150;14.004;2023-03-20T08:02:41;14.40;;;13.00;;
3259;SDS011;22469;48.150;14.004;2023-03-20T08:05:08;14.37;;;12.83;;
3259;SDS011;22469;48.150;14.004;2023-03-20T08:07:36;14.73;;;13.43;;
3259;SDS011;22469;48.150;14.004;2023-03-20T08:10:03;14.97;;;13.63;;
3259;SDS011;22469;48.150;14.004;2023-03-20T08:12:31;14.00;;;12.70;;
3259;SDS011;22469;48.150;14.004;2023-03-20T08:14:57;13.73;;;12.63;;
3259;SDS011;22469;48.150;14.004;2023-03-20T08:17:25;14.30;;;13.00;;
3259;SDS011;22469;48.150;14.004;2023-03-20T08:19:52;15.40;;;14.03;;
3259;SDS011;22469;48.150;14.004;2023-03-20T08:22:18;16.70;;;14.33;;
3259;SDS011;22469;48.150;14.004;2023-03-20T08:24:46;16.60;;;14.93;;
3259;SDS011;22469;48.150;14.004;2023-03-20T08:27:13;14.40;;;13.20;;
3259;SDS011;22469;48.150;14.004;2023-03-20T08:29:40;14.43;;;13.03;;
3259;SDS011;22469;48.150;14.004;2023-03-20T08:32:07;14.77;;;13.30;;
3259;SDS011;22469;48.150;14.004;2023-03-20T08:34:34;14.07;;;12.63;;
3259;SDS011;22469;48.150;14.004;2023-03-20T08:37:02;13.33;;;12.13;;
3259;SDS011;22469;48.150;14.004;2023-03-20T08:39:30;14.80;;;13.30;;
3259;SDS011;22469;48.150;14.004;2023-03-20T08:41:58;13.20;;;12.10;;
3259;SDS011;22469;48.150;14.004;2023-03-20T08:44:26;12.40;;;11.40;;
3259;SDS011;22469;48.150;14.004;2023-03-20T08:46:54;12.00;;;11.00;;
3259;SDS011;22469;48.150;14.004;2023-03-20T08:49:22;10.20;;;9.40;;
3259;SDS011;22469;48.150;14.004;2023-03-20T08:51:49;10.37;;;9.37;;
3259;SDS011;22469;48.150;14.004;2023-03-20T08:54:16;12.33;;;11.33;;
3259;SDS011;22469;48.150;14.004;2023-03-20T08:56:44;11.27;;;10.17;;
3259;SDS011;22469;48.150;14.004;2023-03-20T08:59:11;10.70;;;9.80;;
3259;SDS011;22469;48.150;14.004;2023-03-20T09:01:39;10.30;;;9.50;;
3259;SDS011;22469;48.150;14.004;2023-03-20T09:04:15;11.33;;;10.50;;
3259;SDS011;22469;48.150;14.004;2023-03-20T09:06:43;12.87;;;11.77;;
3259;SDS011;22469;48.150;14.004;2023-03-20T09:09:10;11.27;;;10.27;;
3259;SDS011;22469;48.150;14.004;2023-03-20T09:11:41;10.90;;;10.00;;
3259;SDS011;22469;48.150;14.004;2023-03-20T09:14:08;10.53;;;9.73;;
3259;SDS011;22469;48.150;14.004;2023-03-20T09:16:35;11.53;;;10.53;;
3259;SDS011;22469;48.150;14.004;2023-03-20T09:19:03;11.17;;;10.27;;
3259;SDS011;22469;48.150;14.004;2023-03-20T09:21:31;10.90;;;9.90;;
3259;SDS011;22469;48.150;14.004;2023-03-20T09:23:58;11.40;;;10.30;;
3259;SDS011;22469;48.150;14.004;2023-03-20T09:26:25;12.00;;;10.10;;
3259;SDS011;22469;48.150;14.004;2023-03-20T09:28:52;10.10;;;9.20;;
3259;SDS011;22469;48.150;14.004;2023-03-20T09:31:19;11.13;;;10.23;;
3259;SDS011;22469;48.150;14.004;2023-03-20T09:33:46;10.63;;;9.73;;
3259;SDS011;22469;48.150;14.004;2023-03-20T09:36:13;9.90;;;9.07;;
3259;SDS011;22469;48.150;14.004;2023-03-20T09:38:42;10.63;;;9.83;;
3259;SDS011;22469;48.150;14.004;2023-03-20T09:41:13;10.60;;;9.70;;
3259;SDS011;22469;48.150;14.004;2023-03-20T09:52:34;9.57;;;8.77;;
3259;SDS011;22469;48.150;14.004;2023-03-20T09:55:13;9.20;;;8.37;;
3259;SDS011;22469;48.150;14.004;2023-03-20T09:57:48;9.60;;;8.80;;
3259;SDS011;22469;48.150;14.004;2023-03-20T10:00:27;8.10;;;7.50;;
3259;SDS011;22469;48.150;14.004;2023-03-20T10:03:04;9.00;;;8.20;;
3259;SDS011;22469;48.150;14.004;2023-03-20T10:05:45;9.57;;;8.43;;
3259;SDS011;22469;48.150;14.004;2023-03-20T10:08:21;7.50;;;7.00;;
3259;SDS011;22469;48.150;14.004;2023-03-20T10:13:46;7.33;;;6.83;;
3259;SDS011;22469;48.150;14.004;2023-03-20T10:16:53;6.77;;;6.27;;
3259;SDS011;22469;48.150;14.004;2023-03-20T10:22:31;7.13;;;6.63;;
3259;SDS011;22469;48.150;14.004;2023-03-20T10:25:13;7.80;;;7.20;;
3259;SDS011;22469;48.150;14.004;2023-03-20T10:27:56;7.17;;;6.67;;
3259;SDS011;22469;48.150;14.004;2023-03-20T10:30:28;6.50;;;6.10;;
3259;SDS011;22469;48.150;14.004;2023-03-20T10:38:41;6.67;;;6.10;;
3259;SDS011;22469;48.150;14.004;2023-03-20T10:41:33;7.57;;;6.83;;
3259;SDS011;22469;48.150;14.004;2023-03-20T10:44:04;7.03;;;6.33;;
3259;SDS011;22469;48.150;14.004;2023-03-20T10:46:43;7.00;;;6.50;;
3259;SDS011;22469;48.150;14.004;2023-03-20T10:49:30;7.50;;;6.90;;
3259;SDS011;22469;48.150;14.004;2023-03-20T10:52:10;7.33;;;6.83;;
3259;SDS011;22469;48.150;14.004;2023-03-20T10:54:45;7.93;;;7.33;;
3259;SDS011;22469;48.150;14.004;2023-03-20T10:57:21;7.57;;;6.77;;
3259;SDS011;22469;48.150;14.004;2023-03-20T10:59:55;7.53;;;6.53;;
3259;SDS011;22469;48.150;14.004;2023-03-20T11:02:26;6.30;;;5.90;;
3259;SDS011;22469;48.150;14.004;2023-03-20T11:04:58;6.40;;;6.00;;
3259;SDS011;22469;48.150;14.004;2023-03-20T11:07:30;6.40;;;5.90;;
3259;SDS011;22469;48.150;14.004;2023-03-20T11:12:31;6.30;;;5.77;;
3259;SDS011;22469;48.150;14.004;2023-03-20T11:15:26;6.57;;;5.80;;
3259;SDS011;22469;48.150;14.004;2023-03-20T11:18:04;5.20;;;4.90;;
3259;SDS011;22469;48.150;14.004;2023-03-20T11:20:44;6.17;;;5.77;;
3259;SDS011;22469;48.150;14.004;2023-03-20T11:23:18;5.77;;;5.37;;
3259;SDS011;22469;48.150;14.004;2023-03-20T11:25:55;5.40;;;5.00;;
3259;SDS011;22469;48.150;14.004;2023-03-20T11:28:37;6.17;;;5.60;;
3259;SDS011;22469;48.150;14.004;2023-03-20T11:34:18;5.83;;;5.47;;
3259;SDS011;22469;48.150;14.004;2023-03-20T11:39:35;5.70;;;5.30;;
3259;SDS011;22469;48.150;14.004;2023-03-20T11:42:18;5.50;;;5.00;;
3259;SDS011;22469;48.150;14.004;2023-03-20T11:45:02;4.37;;;4.17;;
3259;SDS011;22469;48.150;14.004;2023-03-20T11:47:33;5.57;;;5.07;;
3259;SDS011;22469;48.150;14.004;2023-03-20T11:50:03;6.40;;;5.90;;
3259;SDS011;22469;48.150;14.004;2023-03-20T11:52:34;5.37;;;4.97;;
3259;SDS011;22469;48.150;14.004;2023-03-20T11:55:06;5.03;;;4.63;;
3259;SDS011;22469;48.150;14.004;2023-03-20T11:57:59;5.40;;;5.00;;
3259;SDS011;22469;48.150;14.004;2023-03-20T12:00:37;5.40;;;5.00;;
3259;SDS011;22469;48.150;14.004;2023-03-20T12:09:35;6.33;;;5.77;;
3259;SDS011;22469;48.150;14.004;2023-03-20T12:12:09;6.30;;;5.80;;
3259;SDS011;22469;48.150;14.004;2023-03-20T12:17:31;7.17;;;6.57;;
3259;SDS011;22469;48.150;14.004;2023-03-20T12:26:10;6.03;;;5.63;;
3259;SDS011;22469;48.150;14.004;2023-03-20T12:34:21;7.10;;;6.40;;
3259;SDS011;22469;48.150;14.004;2023-03-20T12:36:56;6.17;;;5.67;;
3259;SDS011;22469;48.150;14.004;2023-03-20T12:39:24;5.93;;;5.43;;
3259;SDS011;22469;48.150;14.004;2023-03-20T12:45:21;7.77;;;6.97;;
3259;SDS011;22469;48.150;14.004;2023-03-20T13:03:05;7.00;;;6.37;;
3259;SDS011;22469;48.150;14.004;2023-03-20T13:05:44;7.20;;;6.47;;
3259;SDS011;22469;48.150;14.004;2023-03-20T13:11:28;7.13;;;6.63;;
3259;SDS011;22469;48.150;14.004;2023-03-20T13:14:38;6.07;;;5.60;;
3259;SDS011;22469;48.150;14.004;2023-03-20T13:17:11;7.60;;;6.90;;
3259;SDS011;22469;48.150;14.004;2023-03-20T13:22:56;6.93;;;6.43;;
3259;SDS011;22469;48.150;14.004;2023-03-20T13:25:53;6.50;;;5.97;;
3259;SDS011;22469;48.150;14.004;2023-03-20T13:28:43;6.30;;;5.90;;
3259;SDS011;22469;48.150;14.004;2023-03-20T13:38:32;7.23;;;5.57;;
3259;SDS011;22469;48.150;14.004;2023-03-20T13:41:05;8.73;;;6.00;;
3259;SDS011;22469;48.150;14.004;2023-03-20T13:43:38;6.03;;;5.57;;
3259;SDS011;22469;48.150;14.004;2023-03-20T13:46:13;6.43;;;5.83;;
3259;SDS011;22469;48.150;14.004;2023-03-20T13:48:48;7.20;;;6.50;;
3259;SDS011;22469;48.150;14.004;2023-03-20T14:05:28;7.40;;;6.80;;
3259;SDS011;22469;48.150;14.004;2023-03-20T14:11:07;7.60;;;6.90;;
3259;SDS011;22469;48.150;14.004;2023-03-20T14:14:04;6.53;;;6.13;;
3259;SDS011;22469;48.150;14.004;2023-03-20T14:16:42;8.97;;;8.17;;
3259;SDS011;22469;48.150;14.004;2023-03-20T14:19:15;7.53;;;7.03;;
3259;SDS011;22469;48.150;14.004;2023-03-20T14:21:47;8.90;;;7.10;;
3259;SDS011;22469;48.150;14.004;2023-03-20T14:24:19;8.10;;;7.40;;
3259;SDS011;22469;48.150;14.004;2023-03-20T14:26:51;6.60;;;6.00;;
3259;SDS011;22469;48.150;14.004;2023-03-20T14:32:03;6.30;;;4.97;;
3259;SDS011;22469;48.150;14.004;2023-03-20T14:40:29;6.90;;;6.40;;
3259;SDS011;22469;48.150;14.004;2023-03-20T14:43:12;7.90;;;7.20;;
3259;SDS011;22469;48.150;14.004;2023-03-20T14:45:53;6.40;;;6.00;;
3259;SDS011;22469;48.150;14.004;2023-03-20T14:48:49;9.50;;;6.50;;
3259;SDS011;22469;48.150;14.004;2023-03-20T14:54:27;6.93;;;6.43;;
3259;SDS011;22469;48.150;14.004;2023-03-20T14:57:06;8.57;;;7.67;;
3259;SDS011;22469;48.150;14.004;2023-03-20T14:59:41;6.70;;;6.20;;
3259;SDS011;22469;48.150;14.004;2023-03-20T15:02:21;5.80;;;5.20;;
3259;SDS011;22469;48.150;14.004;2023-03-20T15:04:53;5.70;;;5.30;;
3259;SDS011;22469;48.150;14.004;2023-03-20T15:07:24;6.30;;;5.70;;
3259;SDS011;22469;48.150;14.004;2023-03-20T15:09:56;6.77;;;6.27;;
3259;SDS011;22469;48.150;14.004;2023-03-20T15:12:30;5.10;;;4.80;;
3259;SDS011;22469;48.150;14.004;2023-03-20T15:15:04;4.80;;;4.50;;
3259;SDS011;22469;48.150;14.004;2023-03-20T15:17:38;4.17;;;3.87;;
3259;SDS011;22469;48.150;14.004;2023-03-20T15:20:20;5.10;;;4.70;;
3259;SDS011;22469;48.150;14.004;2023-03-20T15:22:58;4.13;;;3.93;;
3259;SDS011;22469;48.150;14.004;2023-03-20T15:25:30;3.80;;;2.97;;
3259;SDS011;22469;48.150;14.004;2023-03-20T15:27:59;3.23;;;3.03;;
3259;SDS011;22469;48.150;14.004;2023-03-20T15:30:32;2.67;;;2.47;;
3259;SDS011;22469;48.150;14.004;2023-03-20T15:33:03;2.10;;;2.00;;
3259;SDS011;22469;48.150;14.004;2023-03-20T15:35:32;2.50;;;2.30;;
3259;SDS011;22469;48.150;14.004;2023-03-20T15:38:04;5.13;;;2.77;;
3259;SDS011;22469;48.150;14.004;2023-03-20T15:40:33;3.57;;;2.97;;
3259;SDS011;22469;48.150;14.004;2023-03-20T15:43:20;2.33;;;2.13;;
3259;SDS011;22469;48.150;14.004;2023-03-20T15:45:51;3.07;;;2.73;;
3259;SDS011;22469;48.150;14.004;2023-03-20T15:48:40;2.70;;;2.50;;
3259;SDS011;22469;48.150;14.004;2023-03-20T15:51:12;3.40;;;2.70;;
3259;SDS011;22469;48.150;14.004;2023-03-20T15:53:40;2.60;;;2.50;;
3259;SDS011;22469;48.150;14.004;2023-03-20T15:56:14;1.90;;;1.80;;
3259;SDS011;22469;48.150;14.004;2023-03-20T15:58:46;2.37;;;2.27;;
3259;SDS011;22469;48.150;14.004;2023-03-20T16:01:19;2.00;;;1.90;;
3259;SDS011;22469;48.150;14.004;2023-03-20T16:03:49;2.30;;;2.20;;
3259;SDS011;22469;48.150;14.004;2023-03-20T16:06:19;2.17;;;1.80;;
3259;SDS011;22469;48.150;14.004;2023-03-20T16:11:37;2.10;;;2.00;;
3259;SDS011;22469;48.150;14.004;2023-03-20T16:14:40;2.40;;;2.20;;
3259;SDS011;22469;48.150;14.004;2023-03-20T16:17:01;2.47;;;2.33;;
3259;SDS011;22469;48.150;14.004;2023-03-20T16:19:30;2.43;;;2.23;;
3259;SDS011;22469;48.150;14.004;2023-03-20T16:21:58;6.90;;;2.27;;
3259;SDS011;22469;48.150;14.004;2023-03-20T16:24:46;2.77;;;2.23;;
3259;SDS011;22469;48.150;14.004;2023-03-20T16:27:50;2.57;;;2.37;;
3259;SDS011;22469;48.150;14.004;2023-03-20T16:30:19;2.50;;;2.40;;
3259;SDS011;22469;48.150;14.004;2023-03-20T16:33:11;3.97;;;2.63;;
3259;SDS011;22469;48.150;14.004;2023-03-20T16:35:42;2.33;;;2.23;;
3259;SDS011;22469;48.150;14.004;2023-03-20T16:38:19;2.37;;;2.00;;
3259;SDS011;22469;48.150;14.004;2023-03-20T16:40:52;2.70;;;2.60;;
3259;SDS011;22469;48.150;14.004;2023-03-20T16:43:29;6.10;;;5.23;;
3259;SDS011;22469;48.150;14.004;2023-03-20T16:46:01;4.60;;;4.20;;
3259;SDS011;22469;48.150;14.004;2023-03-20T16:48:32;2.97;;;2.77;;
3259;SDS011;22469;48.150;14.004;2023-03-20T16:53:49;2.53;;;2.33;;
3259;SDS011;22469;48.150;14.004;2023-03-20T16:56:28;2.70;;;2.57;;
3259;SDS011;22469;48.150;14.004;2023-03-20T16:59:08;3.70;;;2.50;;
3259;SDS011;22469;48.150;14.004;2023-03-20T17:01:44;2.47;;;2.37;;
3259;SDS011;22469;48.150;14.004;2023-03-20T17:04:17;3.00;;;2.90;;
3259;SDS011;22469;48.150;14.004;2023-03-20T17:06:54;3.67;;;3.37;;
3259;SDS011;22469;48.150;14.004;2023-03-20T17:09:28;2.50;;;2.40;;
3259;SDS011;22469;48.150;14.004;2023-03-20T17:14:30;3.97;;;3.67;;
3259;SDS011;22469;48.150;14.004;2023-03-20T17:16:58;3.50;;;3.30;;
3259;SDS011;22469;48.150;14.004;2023-03-20T17:19:25;4.70;;;4.30;;
3259;SDS011;22469;48.150;14.004;2023-03-20T17:21:53;3.43;;;3.23;;
3259;SDS011;22469;48.150;14.004;2023-03-20T17:24:20;3.53;;;3.33;;
3259;SDS011;22469;48.150;14.004;2023-03-20T17:26:51;2.83;;;2.63;;
3259;SDS011;22469;48.150;14.004;2023-03-20T17:29:21;4.30;;;3.90;;
3259;SDS011;22469;48.150;14.004;2023-03-20T17:31:48;5.70;;;3.87;;
3259;SDS011;22469;48.150;14.004;2023-03-20T17:34:15;4.17;;;3.87;;
3259;SDS011;22469;48.150;14.004;2023-03-20T17:36:42;3.67;;;3.43;;